Date,TemperatureHighF,TemperatureAvgF,TemperatureLowF,DewpointHighF,DewpointAvgF,DewpointLowF,HumidityHigh,HumidityAvg,HumidityLow,PressureMaxIn,PressureMinIn,WindSpeedMaxMPH,WindSpeedAvgMPH,GustSpeedMaxMPH,PrecipitationSumIn
2013-1-1,57.1,43.2,33.8,44.4,34.8,30.4,96,76,36,30.28,30.18,10,2,17,0.00
2013-1-2,54.4,42.3,31.8,38.4,34.0,28.0,93,74,51,30.24,30.12,13,4,15,0.00
2013-1-3,55.9,41.2,30.4,41.9,34.6,28.3,94,79,53,30.27,30.16,8,2,11,0.00
2013-1-4,56.7,43.8,34.1,43.7,36.9,31.4,94,78,55,30.29,30.16,9,2,11,0.00
2013-1-5,49.9,43.5,35.2,45.3,40.5,32.2,95,90,79,30.25,30.05,3,3,0,0.18
2013-1-6,58.1,48.2,40.4,48.5,44.2,37.9,96,87,63,30.18,30.04,7,2,9,0.00
2013-1-7,64.8,47.6,37.2,53.9,43.0,35.6,97,85,61,30.25,30.13,7,1,9,0.01
2013-1-8,61.7,47.1,38.5,50.2,43.0,36.7,96,86,66,30.24,30.12,10,2,11,0.00
2013-1-9,54.1,44.8,39.1,51.4,41.6,34.8,98,89,76,30.15,29.97,2,2,0,0.00
2013-1-10,53.8,42.5,34.4,39.4,34.0,31.7,93,74,45,30.19,30.06,15,2,17,0.00
2013-1-11,56.5,43.1,35.9,43.2,36.4,31.0,88,78,58,30.25,30.10,12,0,16,0.00
2013-1-12,53.8,41.5,30.5,40.2,32.5,26.5,93,73,45,30.25,30.12,6,0,7,0.00
2013-1-13,55.9,39.6,26.5,38.1,29.2,15.1,92,70,27,30.27,30.16,6,0,7,0.00
2013-1-14,57.9,43.9,30.9,34.3,25.7,15.0,83,52,26,30.39,30.20,6,1,7,0.00
2013-1-15,52.9,40.0,29.9,39.0,31.9,27.1,92,75,47,30.48,30.38,9,2,12,0.00
2013-1-16,59.5,41.5,29.8,40.3,33.4,26.8,92,75,46,30.44,30.26,5,2,7,0.00
2013-1-17,60.2,43.1,30.3,42.8,35.1,27.9,99,76,47,30.27,30.13,11,1,13,0.00
2013-1-18,60.9,44.1,31.3,44.0,35.6,28.9,95,74,49,30.23,30.12,14,2,14,0.00
2013-1-19,61.5,45.1,31.0,43.6,35.9,28.5,94,73,46,30.24,30.14,13,2,14,0.00
2013-1-20,62.1,44.4,31.0,42.3,34.3,28.4,93,71,40,30.23,30.11,14,3,15,0.00
2013-1-21,62.2,45.5,29.9,44.2,36.5,27.4,96,73,46,30.17,30.07,14,4,14,0.00
2013-1-22,60.8,48.8,34.0,43.6,39.4,31.3,94,72,49,30.11,29.97,13,5,14,0.00
2013-1-23,53.0,51.0,49.2,49.1,45.6,42.1,95,83,69,30.08,29.94,3,3,0,0.27
2013-1-24,59.8,52.6,48.6,53.9,50.2,47.2,96,92,80,30.18,30.06,7,3,9,0.00
2013-1-25,65.3,55.3,50.0,57.9,51.6,48.0,97,88,73,30.18,30.02,7,2,10,0.01
2013-1-26,60.9,51.8,42.7,51.0,45.7,38.1,95,81,57,30.06,29.95,14,1,14,0.00
2013-1-27,60.0,46.1,36.1,43.4,38.2,33.4,92,76,45,30.17,30.05,10,1,13,0.00
2013-1-28,61.2,47.9,38.7,46.7,40.1,34.8,89,76,48,30.28,30.15,15,2,17,0.00
2013-1-29,64.8,49.8,39.4,48.4,42.4,35.7,91,77,50,30.35,30.25,10,1,12,0.00
2013-1-30,70.6,52.2,38.8,52.9,43.4,35.9,93,74,44,30.33,30.23,5,0,5,0.00
2013-1-31,65.7,48.9,36.3,48.5,41.6,33.9,94,78,53,30.29,30.16,9,2,12,0.00
2013-2-1,67.3,50.2,35.7,48.9,42.0,33.4,95,76,48,30.20,30.09,12,3,12,0.00
2013-2-2,62.7,50.2,42.5,52.9,46.0,39.7,95,86,67,30.29,30.20,7,2,10,0.00
2013-2-3,63.5,49.7,40.1,51.5,44.6,37.5,94,84,62,30.24,30.13,6,2,10,0.00
2013-2-4,56.2,46.9,41.6,51.9,44.3,38.9,96,91,79,30.17,30.05,12,0,13,0.00
2013-2-5,61.0,50.9,43.5,50.5,46.0,41.0,92,84,68,30.14,30.04,14,1,17,0.00
2013-2-6,63.0,47.6,37.0,47.8,41.5,34.8,94,81,51,30.19,30.10,15,1,15,0.00
2013-2-7,59.6,48.5,39.6,49.9,41.9,36.3,96,80,46,30.15,29.98,14,1,19,0.10
2013-2-8,59.9,46.7,37.6,44.1,39.3,35.7,94,77,50,30.02,29.92,11,1,16,0.00
2013-2-9,63.9,47.2,36.3,41.2,34.6,30.4,86,64,33,30.09,29.99,9,1,11,0.00
2013-2-10,66.5,45.4,31.0,48.8,36.8,27.8,91,74,43,30.12,30.00,6,2,11,0.00
2013-2-11,71.8,50.0,34.3,46.4,38.3,31.9,94,70,27,30.22,30.07,9,2,11,0.00
2013-2-12,63.8,47.8,39.0,52.2,42.8,37.1,96,84,43,30.36,30.21,8,1,9,0.00
2013-2-13,68.6,50.2,38.3,51.3,44.3,36.8,96,82,46,30.34,30.20,11,2,11,0.00
2013-2-14,73.3,51.7,37.8,54.9,43.7,36.2,96,77,44,30.25,30.14,6,2,7,0.00
2013-2-15,70.8,53.0,37.0,49.2,42.0,34.6,94,70,40,30.25,30.19,13,1,13,0.00
2013-2-16,74.2,52.2,39.7,53.2,43.8,37.0,93,76,38,30.24,30.03,6,0,7,0.00
2013-2-17,65.8,48.7,36.1,49.7,41.7,34.2,96,79,52,30.05,29.96,11,2,14,0.00
2013-2-18,57.2,45.1,35.0,47.3,39.8,32.8,95,82,62,30.02,29.92,12,3,14,0.00
2013-2-19,53.8,45.3,36.6,46.0,39.1,32.3,94,80,54,29.95,29.72,17,3,21,0.23
2013-2-20,63.8,46.1,32.6,44.3,37.5,29.7,92,74,46,30.05,29.84,14,2,14,0.00
2013-2-21,65.2,49.2,38.4,43.2,39.1,34.1,89,71,38,30.16,30.04,10,1,15,0.00
2013-2-22,67.7,49.5,36.4,47.0,41.3,33.8,93,76,35,30.24,30.15,10,1,12,0.00
2013-2-23,63.1,51.2,43.4,46.6,40.3,33.6,91,69,35,30.26,30.15,14,1,20,0.00
2013-2-24,70.1,51.6,40.7,44.0,36.3,30.7,81,59,27,30.25,30.14,10,1,12,0.00
2013-2-25,67.3,49.2,36.4,49.3,40.5,33.5,93,74,45,30.26,30.15,12,1,12,0.00
2013-2-26,71.4,49.3,34.5,43.1,37.6,31.3,91,69,31,30.22,30.12,9,1,14,0.00
2013-2-27,71.6,51.0,35.6,46.4,40.7,33.2,94,72,29,30.34,30.19,10,1,14,0.00
2013-2-28,69.0,55.6,47.0,56.0,49.4,44.2,93,81,60,30.43,30.34,11,1,11,0.00
2013-3-1,75.7,54.1,41.4,58.2,46.8,39.7,96,79,48,30.42,30.22,8,1,12,0.00
2013-3-2,70.1,55.2,44.1,55.9,48.4,41.7,94,79,54,30.24,30.05,10,1,11,0.00
2013-3-3,68.2,54.3,48.9,53.1,48.3,44.6,93,81,54,30.08,30.01,11,1,14,0.00
2013-3-4,61.2,49.5,42.2,50.4,44.7,38.9,94,84,64,30.14,30.04,10,1,13,0.00
2013-3-5,57.1,48.5,39.4,47.9,42.8,37.1,97,82,65,30.06,29.78,13,3,20,0.14
2013-3-6,58.8,51.4,42.1,48.6,43.4,38.3,90,75,52,30.05,29.79,10,2,12,0.14
2013-3-7,56.1,47.2,38.5,47.5,41.2,35.9,94,81,53,29.99,29.85,12,1,13,0.00
2013-3-8,62.6,49.8,40.6,48.0,42.6,36.6,88,78,56,30.03,29.83,11,1,16,0.00
2013-3-9,69.5,52.3,38.9,50.5,42.9,35.8,92,73,43,30.29,30.03,12,1,14,0.00
2013-3-10,73.0,52.9,38.4,51.4,43.5,36.0,94,74,34,30.34,30.23,9,2,12,0.00
2013-3-11,74.9,53.2,41.0,54.4,45.8,39.4,96,79,42,30.26,30.09,10,4,13,0.00
2013-3-12,76.0,53.7,43.6,60.2,47.6,41.9,96,82,51,30.16,30.05,11,2,12,0.00
2013-3-13,80.0,56.9,42.7,58.3,48.8,41.0,96,78,40,30.16,30.03,11,1,11,0.00
2013-3-14,70.3,54.4,46.4,56.8,48.3,43.2,96,81,52,30.16,30.07,11,0,14,0.00
2013-3-15,74.4,54.9,43.6,56.6,47.7,41.1,95,79,48,30.12,30.01,6,0,12,0.00
2013-3-16,74.0,55.2,41.6,54.2,46.7,39.7,95,76,44,30.11,29.99,10,0,15,0.00
2013-3-17,71.3,54.8,44.9,51.5,44.0,40.7,87,69,40,30.14,30.03,10,0,12,0.00
2013-3-18,70.6,52.9,39.6,53.1,44.4,36.9,93,75,46,30.10,30.00,8,1,10,0.00
2013-3-19,64.5,53.5,45.6,50.4,45.8,42.1,91,76,55,30.12,30.03,11,1,11,0.03
2013-3-20,58.8,52.8,48.5,57.1,50.4,43.2,95,92,79,30.12,30.04,0,0,0,0.28
2013-3-21,66.7,52.2,39.8,50.9,44.4,37.6,95,77,51,30.12,30.00,10,0,12,0.00
2013-3-22,70.3,53.9,41.6,44.3,40.5,35.8,81,63,33,30.12,30.02,10,0,10,0.00
2013-3-23,70.7,52.4,37.2,48.0,40.2,33.9,90,67,31,30.14,30.03,7,1,13,0.00
2013-3-24,73.0,52.9,39.4,54.4,44.4,36.9,93,75,44,30.08,29.96,11,2,11,0.00
2013-3-25,59.6,49.3,39.4,49.5,43.4,36.9,94,81,63,30.02,29.92,10,1,14,0.00
2013-3-26,65.9,52.4,43.3,51.3,45.7,40.7,94,79,55,30.00,29.93,10,2,13,0.00
2013-3-27,62.0,53.7,45.9,55.8,48.8,43.1,93,84,70,30.00,29.93,9,2,12,0.00
2013-3-28,66.0,57.0,50.9,56.7,51.8,48.5,94,84,68,30.07,29.98,7,1,9,0.00
2013-3-29,75.8,59.0,50.0,59.4,52.2,48.4,97,81,45,30.08,29.99,11,1,12,0.00
2013-3-30,69.2,57.6,51.0,56.6,52.4,49.0,94,84,57,30.05,29.97,7,0,11,0.07
2013-3-31,66.3,58.1,53.3,57.3,53.6,51.4,96,86,59,30.05,29.97,13,1,17,0.29
2013-4-1,64.2,56.3,49.7,58.5,53.3,46.8,97,90,75,30.14,30.02,7,0,11,0.11
2013-4-2,66.0,53.9,47.3,58.2,50.3,45.0,98,88,69,30.18,30.09,9,1,12,0.00
2013-4-3,73.8,54.8,46.3,58.3,49.7,44.9,96,85,48,30.13,29.97,13,2,15,0.00
2013-4-4,61.8,56.1,50.3,58.3,53.5,48.0,97,92,82,30.10,29.97,11,3,14,0.68
2013-4-5,67.6,58.7,54.2,56.6,53.6,51.1,95,84,63,30.17,30.09,9,0,11,0.00
2013-4-6,69.4,57.6,53.9,58.9,53.3,50.2,94,86,64,30.17,30.12,7,1,11,0.00
2013-4-7,65.0,56.5,49.2,56.4,51.2,46.3,93,83,65,30.18,29.81,9,1,19,0.19
2013-4-8,69.7,54.9,44.7,48.8,42.2,37.0,90,65,33,30.03,29.80,16,1,16,0.00
2013-4-9,77.0,60.9,45.7,53.1,45.9,40.6,84,61,34,30.11,30.01,11,1,12,0.00
2013-4-10,84.9,64.5,50.4,61.3,51.4,44.2,86,65,41,30.16,30.02,10,2,13,0.00
2013-4-11,74.3,58.8,47.3,54.4,48.7,44.1,91,71,45,30.04,29.81,7,1,13,0.00
2013-4-12,73.9,55.8,43.3,57.9,47.2,40.5,92,75,51,29.91,29.81,9,1,14,0.00
2013-4-13,68.9,55.3,43.8,52.5,45.7,40.7,92,72,52,29.89,29.80,9,1,13,0.00
2013-4-14,68.0,53.4,43.6,46.0,42.0,37.8,86,68,42,29.92,29.84,13,1,14,0.00
2013-4-15,62.4,50.8,41.5,45.3,41.0,36.5,93,71,46,29.96,29.84,15,2,16,0.00
2013-4-16,69.2,53.9,40.0,44.8,39.1,32.9,82,60,28,30.16,29.96,11,1,15,0.00
2013-4-17,69.9,56.9,44.5,45.7,39.2,25.3,77,56,20,30.26,30.16,14,0,15,0.00
2013-4-18,78.4,59.9,44.7,50.0,44.2,39.5,85,60,28,30.25,30.17,9,0,12,0.00
2013-4-19,79.3,60.9,43.6,60.1,49.1,40.5,92,68,43,30.23,30.04,7,0,10,0.00
2013-4-20,79.6,61.8,48.1,56.0,47.6,42.4,86,62,39,30.10,29.97,7,0,12,0.00
2013-4-21,82.6,62.6,43.7,60.3,49.0,40.7,92,65,32,30.02,29.90,9,1,12,0.00
2013-4-22,89.9,65.9,47.4,59.6,50.5,44.0,92,62,29,29.95,29.83,9,0,11,0.00
2013-4-23,84.8,63.6,48.8,54.0,41.5,26.7,92,50,14,29.91,29.82,12,1,14,0.00
2013-4-24,64.0,53.7,46.9,53.0,48.3,44.9,94,83,66,29.94,29.83,12,1,16,0.00
2013-4-25,63.9,55.6,50.9,52.6,49.3,46.5,88,80,66,30.12,29.94,5,1,12,0.00
2013-4-26,64.3,54.5,50.2,54.1,49.1,46.9,90,83,67,30.22,30.11,9,0,13,0.00
2013-4-27,71.8,54.4,47.8,58.8,49.3,45.3,94,84,61,30.22,30.05,1,1,0,0.00
2013-4-28,80.8,61.2,42.7,59.6,49.9,40.8,95,70,39,30.06,29.85,1,1,0,0.00
2013-4-29,87.0,67.0,50.9,61.9,52.7,46.5,88,63,35,29.88,29.74,1,1,0,0.00
2013-4-30,81.3,66.2,49.6,53.6,47.0,19.7,86,55,15,29.84,29.75,1,1,0,0.00
2013-5-1,86.7,70.5,53.3,50.2,32.6,19.6,64,28,10,30.07,29.82,1,1,0,0.00
2013-5-2,91.7,67.7,45.6,51.8,39.5,29.7,86,44,12,30.13,30.05,1,1,0,0.00
2013-5-3,91.5,66.3,47.0,58.1,43.9,36.8,81,48,20,30.06,29.77,1,1,0,0.00
2013-5-4,91.3,65.0,48.0,59.9,49.9,44.0,92,63,23,29.77,29.53,1,1,0,0.00
2013-5-5,64.7,59.4,53.4,51.9,50.4,48.8,88,73,61,29.81,29.60,1,1,0,0.00
2013-5-6,72.3,61.7,53.7,55.1,51.9,49.6,89,72,46,29.96,29.80,11,1,12,0.00
2013-5-7,74.4,60.9,54.0,57.7,53.4,51.0,92,78,47,30.04,29.94,0,0,0,0.00
2013-5-8,63.9,55.9,52.0,54.3,51.1,48.1,93,84,69,30.12,30.02,0,0,0,0.00
2013-5-9,67.0,57.2,51.8,54.1,50.8,48.1,90,80,62,30.16,30.08,0,0,0,0.00
2013-5-10,73.8,57.8,51.1,59.8,51.8,48.1,93,82,59,30.17,30.09,0,0,0,0.00
2013-5-11,82.7,60.0,49.5,64.5,52.8,47.2,95,80,52,30.13,30.03,0,0,0,0.00
2013-5-12,76.7,60.5,48.0,62.1,52.7,46.3,96,78,52,30.13,30.01,0,0,0,0.00
2013-5-13,78.2,62.1,47.6,60.9,52.8,45.6,98,74,52,30.07,29.92,0,0,0,0.00
2013-5-14,80.2,63.3,50.3,55.4,49.9,45.3,89,64,38,29.96,29.88,0,0,0,0.00
2013-5-15,71.9,58.7,47.2,52.0,48.2,43.3,89,70,44,30.02,29.96,0,0,0,0.00
2013-5-16,70.3,59.4,52.0,57.2,52.0,48.3,90,78,57,30.00,29.94,0,0,0,0.00
2013-5-17,69.8,57.6,45.8,52.7,47.9,43.0,92,72,51,30.06,29.95,0,0,0,0.00
2013-5-18,78.0,60.6,45.0,54.2,49.3,42.3,93,69,41,30.11,30.04,0,0,0,0.00
2013-5-19,84.7,65.6,48.8,53.1,48.4,43.1,87,58,29,30.11,29.96,0,0,0,0.00
2013-5-20,90.8,66.0,49.1,55.2,49.2,44.7,88,61,24,29.99,29.90,0,0,0,0.00
2013-5-21,71.3,58.8,48.8,52.4,46.9,40.8,87,67,45,29.97,29.88,0,0,0,0.00
2013-5-22,68.0,55.6,44.9,45.1,38.9,32.1,79,55,28,30.02,29.88,0,0,0,0.00
2013-5-23,71.1,57.0,43.6,47.3,43.6,39.6,87,64,37,29.99,29.89,0,0,0,0.00
2013-5-24,73.7,57.6,44.3,49.0,44.6,40.1,87,64,37,29.98,29.91,0,0,0,0.00
2013-5-25,73.5,57.2,43.9,50.2,46.4,40.1,90,70,42,30.01,29.93,0,0,0,0.00
2013-5-26,70.6,59.9,51.5,56.6,51.7,48.0,94,76,56,30.10,30.01,0,0,0,0.00
2013-5-27,65.5,58.2,50.3,58.2,53.5,47.4,91,85,71,30.09,29.97,0,0,0,0.01
2013-5-28,72.2,61.6,55.8,61.4,54.9,50.0,95,80,57,29.98,29.89,0,0,0,0.02
2013-5-29,73.2,61.7,52.3,58.2,52.6,46.8,89,73,54,29.96,29.87,0,0,0,0.00
2013-5-30,77.6,61.7,47.4,52.4,48.4,44.5,91,65,40,29.97,29.91,0,0,0,0.00
2013-5-31,87.0,67.2,49.9,55.6,49.5,44.3,85,57,30,30.00,29.88,0,0,0,0.00
2013-6-1,92.0,70.7,51.5,58.2,51.2,45.4,82,54,30,29.92,29.74,0,0,0,0.00
2013-6-2,83.8,67.2,52.1,56.7,52.4,47.1,85,62,38,29.76,29.62,0,0,0,0.00
2013-6-3,74.9,61.2,49.6,56.9,51.9,46.1,92,73,51,29.86,29.68,0,0,0,0.00
2013-6-4,69.8,60.0,54.1,55.8,52.6,50.5,90,78,59,29.96,29.84,0,0,0,0.00
2013-6-5,71.7,59.5,53.5,56.5,52.5,50.3,92,79,58,29.99,29.91,0,0,0,0.00
2013-6-6,74.8,59.0,52.2,59.3,52.7,49.9,93,81,56,29.94,29.84,0,0,0,0.00
2013-6-7,86.6,66.0,52.9,62.0,55.1,50.6,93,72,40,29.87,29.69,0,0,0,0.00
2013-6-8,92.4,69.2,54.9,64.9,56.4,50.6,88,67,39,29.80,29.68,0,0,0,0.00
2013-6-9,68.9,61.6,57.0,57.5,54.9,53.4,88,79,65,29.88,29.80,0,0,0,0.00
2013-6-10,65.7,60.6,57.2,57.3,54.4,51.6,93,80,68,29.94,29.79,0,0,0,0.00
2013-6-11,78.7,65.1,55.3,59.3,53.9,47.1,87,69,47,29.97,29.86,0,0,0,0.00
2013-6-12,80.6,62.9,46.8,53.8,48.8,43.3,90,64,38,29.97,29.88,0,0,0,0.00
2013-6-13,81.4,64.9,48.2,53.2,48.0,43.3,86,58,31,30.07,29.96,0,0,0,0.00
2013-6-14,90.1,68.0,53.1,53.5,49.1,45.1,82,55,23,29.98,29.80,0,0,0,0.00
2013-6-15,81.7,61.2,46.6,57.4,50.0,43.6,92,70,38,29.97,29.81,0,0,0,0.00
2013-6-16,80.8,63.3,48.2,55.8,50.6,44.5,92,66,41,30.06,29.96,0,0,0,0.00
2013-6-17,76.3,62.4,51.2,58.4,53.2,47.7,92,74,51,30.06,29.98,0,0,0,0.00
2013-6-18,71.6,60.6,52.7,55.2,52.3,48.9,93,76,51,30.00,29.93,0,0,0,0.00
2013-6-19,75.9,61.8,48.9,52.6,49.4,45.2,90,67,43,30.03,29.98,0,0,0,0.00
2013-6-20,80.2,63.8,49.6,52.2,48.8,45.1,87,61,37,29.99,29.91,0,0,0,0.00
2013-6-21,85.7,66.5,48.7,54.1,49.9,45.1,90,60,31,29.96,29.87,0,0,0,0.00
2013-6-22,90.1,68.4,50.4,55.4,51.2,45.0,85,58,28,29.91,29.80,0,0,0,0.00
2013-6-23,70.1,62.4,56.4,61.9,57.5,52.8,93,85,72,29.85,29.79,0,0,0,0.00
2013-6-24,65.4,61.1,57.6,61.1,57.3,54.6,93,88,80,29.87,29.77,0,0,0,0.10
2013-6-25,67.7,63.5,59.5,65.2,61.7,57.7,97,94,88,29.96,29.85,0,0,0,0.32
2013-6-26,81.1,69.9,61.7,67.6,63.5,58.8,96,82,56,30.03,29.94,0,0,0,0.01
2013-6-27,86.6,71.1,57.3,65.6,60.0,55.5,95,71,44,30.06,29.98,0,0,0,0.00
2013-6-28,98.0,76.4,57.7,67.9,60.1,54.7,92,62,35,30.01,29.85,0,0,0,0.00
2013-6-29,103.5,79.1,58.8,64.6,58.0,52.6,83,52,27,29.89,29.75,0,0,0,0.00
2013-6-30,95.7,73.7,56.9,63.6,57.3,52.2,87,60,34,29.82,29.72,0,0,0,0.00
2013-7-1,100.0,72.4,55.9,65.0,57.5,52.1,92,64,30,29.82,29.76,0,0,0,0.00
2013-7-2,96.2,71.9,59.6,67.1,58.9,54.9,89,67,35,29.90,29.78,0,0,0,0.00
2013-7-3,93.8,70.1,57.7,66.7,59.2,55.2,94,72,40,29.89,29.73,0,0,0,0.00
2013-7-4,95.4,76.8,60.9,67.1,58.0,48.6,83,56,33,29.77,29.63,0,0,0,0.00
2013-7-5,77.8,65.9,54.5,59.2,53.5,48.5,86,66,49,29.73,29.66,0,0,0,0.00
2013-7-6,82.3,63.8,53.3,60.1,54.1,49.5,90,73,46,29.78,29.70,0,0,0,0.00
2013-7-7,81.7,62.4,53.7,60.0,54.1,50.3,92,77,46,29.85,29.76,0,0,0,0.00
2013-7-8,82.0,63.6,55.4,60.9,54.8,51.9,90,75,48,29.96,29.85,0,0,0,0.00
2013-7-9,90.1,65.6,51.3,60.3,54.1,49.3,94,71,35,30.02,29.91,0,0,0,0.00
2013-7-10,78.2,60.5,52.8,58.7,53.4,50.1,95,80,50,29.98,29.88,0,0,0,0.00
2013-7-11,73.5,59.2,51.9,57.7,52.6,49.6,93,80,55,29.93,29.85,0,0,0,0.00
2013-7-12,82.0,61.6,53.3,59.8,53.2,49.2,90,76,47,29.94,29.84,0,0,0,0.00
2013-7-13,84.9,63.1,48.2,60.3,52.6,45.6,93,72,42,29.94,29.87,0,0,0,0.00
2013-7-14,80.7,61.0,51.9,59.0,52.9,49.3,93,77,46,29.98,29.88,0,0,0,0.00
2013-7-15,71.8,58.2,51.2,57.5,52.6,49.0,95,83,59,29.92,29.83,0,0,0,0.00
2013-7-16,71.0,60.6,55.3,58.1,54.1,52.0,89,80,63,30.01,29.85,0,0,0,0.00
2013-7-17,78.5,62.6,54.8,61.0,55.5,52.2,93,80,53,30.08,30.00,0,0,0,0.00
2013-7-18,80.5,62.3,53.9,60.3,54.6,51.3,94,78,48,30.05,29.92,0,0,0,0.00
2013-7-19,85.1,62.8,51.2,61.7,54.1,48.6,95,77,45,29.93,29.79,0,0,0,0.00
2013-7-20,85.8,63.5,51.8,61.7,54.2,49.0,94,75,44,29.83,29.71,0,0,0,0.00
2013-7-21,85.0,63.7,53.5,60.3,54.1,50.6,92,74,42,29.87,29.74,0,0,0,0.00
2013-7-22,87.5,67.0,53.8,63.4,56.7,51.1,91,73,40,29.95,29.87,0,0,0,0.00
2013-7-23,79.6,66.2,58.4,62.2,57.6,54.7,92,75,55,29.98,29.92,0,0,0,0.00
2013-7-24,82.9,65.3,55.3,60.1,55.7,51.8,94,74,45,29.97,29.88,0,0,0,0.00
2013-7-25,76.6,61.4,53.6,58.7,54.1,51.5,94,79,52,30.01,29.90,0,0,0,0.00
2013-7-26,77.2,60.7,53.8,60.7,54.9,51.9,95,83,55,30.08,29.99,0,0,0,0.00
2013-7-27,76.6,60.6,53.8,60.1,54.8,52.1,95,83,56,30.02,29.85,0,0,0,0.00
2013-7-28,76.7,60.4,54.0,60.1,54.2,50.9,96,82,54,29.87,29.78,0,0,0,0.00
2013-7-29,73.3,61.4,55.1,57.0,53.7,51.3,88,77,55,30.01,29.82,0,0,0,0.00
2013-7-30,75.2,60.2,54.5,59.6,53.9,51.4,92,81,57,30.09,30.01,0,0,0,0.00
2013-7-31,76.7,62.7,54.7,58.5,53.9,51.3,90,75,51,30.07,29.96,0,0,0,0.00
2013-8-1,75.5,62.8,51.3,58.0,53.0,48.7,94,73,48,30.04,29.93,0,0,0,0.00
2013-8-2,86.6,64.6,49.6,59.4,52.6,47.0,94,69,39,29.95,29.86,0,0,0,0.00
2013-8-3,81.5,61.2,53.1,59.5,53.1,49.3,92,77,46,29.95,29.89,0,0,0,0.00
2013-8-4,76.6,60.2,53.7,58.8,53.2,50.8,91,79,52,29.99,29.93,0,0,0,0.00
2013-8-5,77.1,59.8,53.7,59.5,53.4,50.1,93,81,52,30.01,29.92,0,0,0,0.00
2013-8-6,74.1,61.0,52.6,57.3,54.0,50.6,94,79,55,30.03,29.96,0,0,0,0.00
2013-8-7,71.7,62.6,56.5,58.9,56.2,53.8,92,81,63,30.08,30.01,4,0,6,0.00
2013-8-8,76.4,62.6,54.9,60.0,55.6,51.9,93,79,55,30.02,29.93,0,0,0,0.00
2013-8-9,75.9,60.9,54.1,59.4,54.7,51.9,94,81,55,29.98,29.90,0,0,0,0.00
2013-8-10,76.7,63.2,56.4,59.8,56.2,53.2,91,79,54,30.02,29.96,0,0,0,0.00
2013-8-11,78.3,62.5,55.1,60.8,55.8,53.1,94,81,53,30.01,29.92,0,0,0,0.00
2013-8-12,83.3,62.7,54.6,62.0,55.0,52.1,94,79,47,29.98,29.91,0,0,0,0.00
2013-8-13,87.5,66.2,54.6,61.0,55.3,51.8,94,72,40,29.98,29.88,0,0,0,0.00
2013-8-14,88.7,67.2,50.1,60.4,55.0,46.4,92,69,32,29.95,29.86,0,0,0,0.00
2013-8-15,85.8,68.9,57.7,66.6,61.3,55.0,95,79,49,29.93,29.88,0,0,0,0.00
2013-8-16,88.9,68.4,58.2,66.8,59.6,54.9,96,77,44,29.96,29.91,0,0,0,0.00
2013-8-17,85.6,67.8,53.2,61.0,56.5,50.9,94,70,39,29.96,29.81,5,0,5,0.00
2013-8-18,92.1,70.7,54.6,65.3,58.1,51.7,93,68,40,29.87,29.74,7,0,10,0.00
2013-8-19,87.9,69.8,59.0,64.9,58.3,53.8,91,70,43,29.86,29.76,0,0,0,0.00
2013-8-20,85.9,67.0,60.2,62.7,59.0,56.3,93,78,43,29.88,29.78,0,0,0,0.00
2013-8-21,78.8,64.1,56.8,59.7,56.1,52.6,88,77,51,29.93,29.84,8,0,11,0.00
2013-8-22,73.2,61.9,56.3,57.9,55.0,52.8,92,79,56,29.96,29.88,6,0,10,0.00
2013-8-23,79.5,64.0,57.0,60.4,55.7,52.2,91,76,51,29.91,29.77,8,0,8,0.00
2013-8-24,80.0,64.6,53.6,60.5,56.1,51.2,94,76,50,29.87,29.80,14,0,14,0.00
2013-8-25,81.3,67.5,59.7,65.9,60.4,56.1,93,79,58,29.92,29.85,6,0,11,0.00
2013-8-26,79.6,65.8,58.1,62.7,57.2,52.8,92,76,47,29.99,29.88,5,0,7,0.00
2013-8-27,86.8,65.1,50.9,60.7,55.5,48.3,93,74,39,29.88,29.80,6,0,10,0.00
2013-8-28,82.6,67.0,58.1,65.3,60.7,56.3,96,82,55,29.92,29.82,10,0,12,0.00
2013-8-29,81.4,67.9,61.3,65.6,61.7,59.3,95,82,55,30.03,29.92,6,0,12,0.00
2013-8-30,91.0,71.4,57.0,65.6,60.0,54.9,95,71,40,30.01,29.88,6,0,12,0.00
2013-8-31,83.3,65.5,53.7,61.8,56.8,50.8,93,76,44,29.95,29.87,6,1,11,0.00
2013-9-1,80.5,64.9,54.4,62.4,57.5,52.1,93,79,46,29.92,29.86,9,0,12,0.00
2013-9-2,82.9,69.1,61.1,65.3,61.9,58.2,94,80,53,29.93,29.86,7,0,11,0.00
2013-9-3,81.5,66.8,54.8,60.5,56.9,52.4,94,74,41,29.96,29.89,6,0,9,0.00
2013-9-6,75.8,70.0,64.4,52.2,50.8,50.1,60,51,42,29.82,29.81,0,0,0,0.00
2013-9-7,97.2,72.1,52.2,56.5,51.9,44.3,86,55,19,29.86,29.77,6,0,7,0.00
2013-9-8,87.2,66.1,55.4,60.4,55.3,52.1,94,72,39,29.86,29.74,7,0,10,0.00
2013-9-9,90.7,65.6,53.2,59.9,55.4,50.5,95,75,31,29.80,29.68,11,0,11,0.00
2013-9-10,79.3,64.8,57.7,62.7,59.0,55.3,94,83,55,29.88,29.71,6,1,9,0.00
2013-9-11,75.0,66.9,62.9,61.7,59.9,58.9,90,79,62,29.98,29.88,4,0,8,0.00
2013-9-12,77.8,65.1,59.0,63.6,59.6,55.9,94,84,58,29.96,29.87,7,0,11,0.00
2013-9-13,79.2,63.3,56.5,61.9,56.6,53.3,94,80,52,29.88,29.73,6,0,9,0.00
2013-9-14,73.3,62.0,55.9,60.0,55.9,52.8,92,82,62,29.80,29.71,6,0,7,0.00
2013-9-15,78.5,64.1,54.0,60.1,56.9,51.7,94,79,52,29.83,29.74,6,1,11,0.00
2013-9-16,83.7,65.8,53.8,61.9,56.5,51.6,94,75,44,29.87,29.74,5,1,7,0.00
2013-9-17,75.3,64.2,53.9,59.0,54.4,50.0,94,72,53,29.86,29.78,9,0,12,0.00
2013-9-18,86.3,66.9,55.5,54.4,50.1,46.6,79,58,28,29.89,29.78,6,0,7,0.00
2013-9-19,90.6,65.0,47.6,54.7,49.2,43.9,89,62,25,29.84,29.72,6,0,6,0.00
2013-9-20,77.8,62.4,46.4,62.7,55.4,43.8,93,79,57,29.82,29.75,9,0,10,0.00
2013-9-21,70.6,63.1,56.4,64.4,58.5,53.0,96,86,61,29.87,29.76,7,0,10,0.38
2013-9-22,75.0,61.8,50.1,57.7,53.7,48.4,95,77,49,29.98,29.87,7,0,12,0.00
2013-9-23,83.6,65.7,52.9,62.9,56.3,49.5,90,74,48,30.00,29.90,6,0,6,0.00
2013-9-24,76.7,63.7,55.8,57.1,53.9,49.6,91,72,47,29.95,29.87,10,0,13,0.00
2013-9-25,72.6,60.2,51.2,52.0,48.2,43.0,89,67,38,29.92,29.79,11,1,14,0.00
2013-9-26,76.7,61.4,49.0,50.8,44.4,39.1,77,57,28,29.97,29.83,6,0,9,0.00
2013-9-27,80.4,63.8,48.3,49.7,43.7,36.0,85,53,23,30.07,29.96,5,0,7,0.00
2013-9-28,82.9,61.5,45.6,56.9,48.8,41.9,91,68,27,30.07,29.99,6,1,10,0.00
2013-9-29,74.0,63.8,55.0,63.1,58.8,52.4,95,85,66,30.08,30.02,4,1,7,0.01
2013-9-30,75.8,65.3,55.4,66.2,59.7,45.6,96,83,62,30.04,29.95,3,0,9,0.04
2013-10-1,76.7,60.9,46.5,54.7,49.3,43.4,93,68,42,29.99,29.88,8,1,10,0.00
2013-10-2,76.0,61.5,51.4,52.6,48.3,42.6,87,64,41,30.01,29.91,6,0,7,0.00
2013-10-3,76.2,63.6,47.8,44.5,36.6,26.6,76,42,17,30.07,29.93,13,2,15,0.00
2013-10-4,82.3,70.7,56.9,37.3,30.7,25.9,38,24,13,30.06,29.97,15,1,16,0.00
2013-10-5,83.3,64.5,43.2,43.9,34.9,30.3,70,38,15,30.17,30.06,12,1,12,0.00
2013-10-6,84.5,63.9,42.8,41.6,37.3,34.0,74,42,18,30.12,29.97,10,1,11,0.00
2013-10-7,86.1,63.4,45.5,47.6,40.8,32.7,74,48,15,29.98,29.84,4,0,9,0.00
2013-10-8,79.8,59.7,44.7,51.3,45.7,41.0,90,64,28,29.90,29.68,5,0,10,0.00
2013-10-9,72.3,59.2,46.9,50.6,44.5,42.1,88,61,37,29.74,29.61,7,0,10,0.00
2013-10-10,74.7,57.9,47.8,52.6,46.4,40.4,89,68,33,29.99,29.72,7,0,14,0.00
2013-10-11,69.8,53.9,48.1,53.0,48.1,45.8,98,83,53,30.08,29.97,7,1,9,0.00
2013-10-12,71.7,54.8,44.0,54.8,47.2,42.3,96,78,44,30.01,29.87,6,0,10,0.00
2013-10-13,76.9,58.8,46.2,53.5,46.3,40.7,93,68,30,30.04,29.90,5,0,10,0.00
2013-10-14,79.8,58.9,41.5,48.7,42.2,38.5,92,60,27,30.10,29.97,7,0,9,0.00
2013-10-15,82.8,60.3,41.0,47.3,37.9,34.8,88,50,19,30.03,29.92,10,0,10,0.00
2013-10-16,81.8,60.2,40.9,42.4,37.6,33.6,80,48,20,30.08,29.97,7,1,7,0.00
2013-10-17,85.0,60.2,41.5,48.3,39.3,33.8,85,52,18,30.08,29.93,4,0,6,0.00
2013-10-18,79.7,57.3,47.1,55.0,47.3,43.8,95,73,35,30.04,29.96,6,0,7,0.00
2013-10-19,84.2,58.0,41.9,51.9,45.0,39.8,95,69,22,30.07,29.96,5,0,5,0.00
2013-10-20,77.6,55.4,47.1,54.4,47.9,45.3,96,79,41,30.01,29.89,6,0,9,0.00
2013-10-21,73.3,54.9,48.3,55.0,49.1,46.4,96,83,50,30.00,29.89,5,0,7,0.00
2013-10-22,75.5,54.8,46.7,56.5,49.0,45.3,96,83,48,30.01,29.90,5,0,7,0.00
2013-10-23,73.4,53.5,47.3,56.1,48.8,45.9,96,86,51,29.97,29.87,5,0,9,0.00
2013-10-24,64.7,53.5,47.7,52.6,48.5,44.4,95,84,61,30.09,29.95,6,1,10,0.00
2013-10-25,70.7,53.5,43.9,54.6,47.2,41.7,96,81,53,30.17,30.06,5,1,7,0.00
2013-10-26,81.8,56.0,40.3,53.9,46.0,37.8,94,74,33,30.14,30.00,3,0,6,0.00
2013-10-27,62.2,53.2,48.7,54.3,49.1,47.0,95,87,65,30.02,29.62,13,0,16,0.00
2013-10-28,67.4,54.3,44.1,51.7,46.1,41.3,94,76,48,29.81,29.64,5,0,6,0.00
2013-10-29,65.2,54.5,46.9,50.7,47.4,43.5,92,78,54,30.04,29.80,6,0,6,0.00
2013-10-30,69.6,54.2,44.6,53.3,46.4,42.4,96,78,47,30.14,30.03,4,0,9,0.00
2013-10-31,76.4,55.1,40.0,49.6,44.1,37.5,93,70,37,30.17,30.04,5,0,7,0.00
2013-11-1,75.5,57.2,42.2,50.5,44.1,38.4,92,66,36,30.14,29.99,13,2,13,0.00
2013-11-2,73.1,55.3,43.8,55.7,47.0,40.1,95,75,43,30.02,29.87,5,0,9,0.00
2013-11-3,66.1,54.4,44.8,42.9,38.2,30.8,74,57,27,30.04,29.91,12,1,12,0.00
2013-11-4,72.9,56.2,41.1,39.9,35.9,25.3,86,53,18,30.08,29.91,13,2,13,0.00
2013-11-5,77.5,59.9,45.8,42.7,39.6,35.7,72,50,25,30.20,30.05,7,1,7,0.00
2013-11-6,72.8,58.0,43.5,45.8,41.4,38.5,86,58,29,30.25,30.13,11,2,12,0.00
2013-11-7,76.9,59.1,48.4,51.4,44.9,39.8,88,63,29,30.16,30.05,5,1,6,0.00
2013-11-8,76.8,55.6,42.9,55.1,46.8,40.7,94,76,36,30.07,29.94,6,0,9,0.00
2013-11-9,73.2,54.9,40.9,51.7,45.8,39.0,95,75,38,30.03,29.93,7,1,11,0.00
2013-11-10,69.9,53.6,42.4,54.9,47.3,40.3,96,81,52,30.10,30.00,6,0,9,0.00
2013-11-11,66.4,54.8,44.6,52.7,48.5,41.5,95,81,55,30.14,30.05,7,1,7,0.00
2013-11-20,59.7,54.7,50.7,59.1,53.7,49.6,98,97,96,29.89,29.82,0,0,0,0.02
2013-11-21,64.7,57.2,50.8,53.8,36.6,19.6,96,56,20,29.97,29.87,11,1,18,0.01
2013-11-22,75.1,66.0,53.2,20.3,14.5,7.9,24,14,9,30.01,29.86,15,2,21,0.00
2013-11-23,65.6,54.3,41.5,39.7,33.9,14.9,75,49,14,30.09,29.92,13,2,14,0.00
2013-11-24,63.9,48.0,34.1,44.8,37.6,30.0,89,70,39,30.24,30.08,9,1,11,0.00
2013-11-25,63.9,48.3,35.5,47.1,40.5,32.8,93,76,51,30.32,30.23,9,1,10,0.00
2013-11-26,63.9,50.0,39.3,46.4,41.2,36.6,94,74,45,30.27,30.02,11,1,11,0.00
2013-11-27,64.7,52.1,39.8,48.0,42.8,36.8,92,72,50,30.02,29.82,12,2,14,0.00
2013-11-28,73.4,52.5,40.5,49.3,42.0,37.8,93,71,37,30.05,29.85,3,0,7,0.00
2013-11-29,68.8,51.0,38.4,48.9,41.9,35.7,92,74,40,30.21,30.05,9,2,13,0.00
2013-11-30,71.9,51.8,41.3,49.9,43.7,38.0,93,77,42,30.26,30.16,4,2,6,0.00
2013-12-1,74.7,53.0,38.3,50.6,43.5,36.1,94,74,38,30.33,30.19,5,0,5,0.00
2013-12-2,66.7,51.5,38.7,55.2,46.9,36.5,96,85,60,30.22,29.94,11,0,15,0.00
2013-12-3,58.6,50.5,41.3,53.3,36.8,29.8,93,62,36,29.94,29.81,12,3,14,0.00
2013-12-4,54.9,42.1,30.8,36.2,29.7,25.7,87,64,33,30.08,29.93,9,4,10,0.00
2013-12-5,53.4,37.8,25.8,34.0,26.7,20.1,90,68,30,30.15,30.07,9,1,10,0.00
2013-12-6,49.4,39.1,26.4,47.4,33.5,22.8,93,81,53,30.19,29.88,9,1,10,0.29
2013-12-7,48.8,41.2,31.5,45.5,32.2,26.0,94,73,42,30.26,29.90,16,2,19,0.00
2013-12-8,48.4,36.3,28.1,32.9,27.0,24.0,90,71,42,30.32,30.21,8,0,10,0.00
2013-12-9,50.0,35.9,24.0,31.6,24.6,20.9,90,67,35,30.42,30.30,12,1,14,0.00
2013-12-10,53.0,38.1,25.7,34.6,27.6,21.8,92,68,39,30.41,30.20,8,1,10,0.00
2013-12-11,55.5,41.2,28.9,37.0,31.5,25.4,92,70,45,30.24,30.16,15,2,15,0.00
2013-12-12,59.3,42.5,29.7,39.2,32.6,26.4,91,71,39,30.27,30.14,9,1,10,0.00
2013-12-13,65.3,45.4,31.7,41.8,36.0,29.3,93,73,34,30.34,30.21,4,0,5,0.00
2013-12-14,59.5,44.2,31.7,43.9,36.6,29.3,93,77,49,30.39,30.29,11,1,13,0.00
2013-12-15,63.2,44.4,30.6,44.2,35.8,28.2,94,75,44,30.36,30.22,7,1,9,0.00
2013-12-16,64.1,47.3,35.2,44.8,37.4,32.1,93,71,43,30.24,30.10,14,1,15,0.00
2013-12-17,64.2,47.7,36.9,46.2,39.0,33.8,92,74,46,30.17,30.02,14,1,14,0.00
2013-12-18,61.1,47.7,38.2,48.8,42.3,34.9,92,82,63,30.02,29.74,7,0,11,0.00
2013-12-19,64.3,50.9,37.6,44.8,33.1,17.2,89,57,25,29.91,29.72,9,0,12,0.00
2013-12-20,69.3,49.9,33.9,39.5,31.0,21.1,79,52,18,29.99,29.90,9,0,10,0.00
2013-12-21,69.3,52.6,41.5,52.7,45.4,39.3,95,78,52,30.07,29.94,10,0,10,0.00
2013-12-22,63.2,48.2,35.5,47.9,38.7,33.4,94,73,44,30.28,30.07,9,1,9,0.00
2013-12-23,65.2,47.8,35.5,45.2,38.4,32.2,92,72,45,30.39,30.27,7,1,9,0.00
2013-12-24,71.7,50.3,38.1,47.5,40.4,35.1,91,72,39,30.33,30.18,7,1,10,0.00
2013-12-25,63.1,46.1,32.5,45.6,37.6,29.9,94,75,48,30.29,30.18,12,2,17,0.00
2013-12-26,64.6,46.6,32.7,44.0,36.5,29.9,92,71,42,30.25,30.14,14,1,16,0.00
2013-12-27,60.5,45.3,34.3,45.0,35.8,30.7,92,72,44,30.23,30.11,8,0,10,0.00
2013-12-28,71.1,46.0,30.2,42.3,34.4,27.6,92,68,31,30.15,29.99,5,0,9,0.00
2013-12-29,64.5,45.9,31.2,38.0,32.1,27.6,88,63,29,30.17,30.07,15,1,15,0.00
2013-12-30,62.3,45.9,31.9,41.2,34.8,27.8,88,67,44,30.24,30.15,11,1,15,0.00
2013-12-31,64.7,46.9,37.8,47.1,40.2,34.0,95,80,44,30.27,30.14,6,1,6,0.00
2014-1-1,64.5,45.9,31.4,44.7,36.6,29.0,93,74,33,30.20,30.10,6,0,6,0.00
2014-1-2,65.1,48.4,34.9,45.6,37.5,32.3,93,69,39,30.17,30.03,8,1,11,0.00